sensor_id;sensor_type;location;lat;lon;timestamp;P1;durP1;ratioP1;P2;durP2;ratioP2
62435;SDS011;48480;50.252;18.848;2024-01-11T00:01:47;169.40;;;65.90;;
62435;SDS011;48480;50.252;18.848;2024-01-11T00:04:32;154.20;;;65.20;;
62435;SDS011;48480;50.252;18.848;2024-01-11T00:07:17;201.30;;;72.90;;
62435;SDS011;48480;50.252;18.848;2024-01-11T00:10:11;190.00;;;69.80;;
62435;SDS011;48480;50.252;18.848;2024-01-11T00:12:55;204.40;;;75.10;;
62435;SDS011;48480;50.252;18.848;2024-01-11T00:15:39;202.20;;;74.70;;
62435;SDS011;48480;50.252;18.848;2024-01-11T00:18:23;220.30;;;81.40;;
62435;SDS011;48480;50.252;18.848;2024-01-11T00:21:08;226.50;;;84.60;;
62435;SDS011;48480;50.252;18.848;2024-01-11T00:23:52;223.30;;;87.00;;
62435;SDS011;48480;50.252;18.848;2024-01-11T00:26:36;275.30;;;98.80;;
62435;SDS011;48480;50.252;18.848;2024-01-11T00:29:20;247.90;;;95.90;;
62435;SDS011;48480;50.252;18.848;2024-01-11T00:32:04;250.50;;;88.80;;
62435;SDS011;48480;50.252;18.848;2024-01-11T00:34:48;267.00;;;99.10;;
62435;SDS011;48480;50.252;18.848;2024-01-11T00:37:32;253.70;;;92.90;;
62435;SDS011;48480;50.252;18.848;2024-01-11T00:40:17;247.90;;;93.70;;
62435;SDS011;48480;50.252;18.848;2024-01-11T00:43:01;255.20;;;97.40;;
62435;SDS011;48480;50.252;18.848;2024-01-11T00:45:45;205.40;;;75.20;;
62435;SDS011;48480;50.252;18.848;2024-01-11T00:48:30;225.10;;;87.30;;
62435;SDS011;48480;50.252;18.848;2024-01-11T00:51:15;182.20;;;70.60;;
62435;SDS011;48480;50.252;18.848;2024-01-11T00:53:59;198.40;;;68.20;;
62435;SDS011;48480;50.252;18.848;2024-01-11T00:56:43;165.80;;;70.50;;
62435;SDS011;48480;50.252;18.848;2024-01-11T00:59:27;196.20;;;71.50;;
62435;SDS011;48480;50.252;18.848;2024-01-11T01:02:11;187.60;;;71.40;;
62435;SDS011;48480;50.252;18.848;2024-01-11T01:04:55;211.10;;;83.10;;
62435;SDS011;48480;50.252;18.848;2024-01-11T01:07:39;224.50;;;84.40;;
62435;SDS011;48480;50.252;18.848;2024-01-11T01:10:24;230.30;;;89.00;;
62435;SDS011;48480;50.252;18.848;2024-01-11T01:13:09;218.30;;;84.00;;
62435;SDS011;48480;50.252;18.848;2024-01-11T01:15:52;215.40;;;81.20;;
62435;SDS011;48480;50.252;18.848;2024-01-11T01:18:36;205.30;;;78.80;;
62435;SDS011;48480;50.252;18.848;2024-01-11T01:21:21;200.70;;;76.70;;
62435;SDS011;48480;50.252;18.848;2024-01-11T01:24:05;211.20;;;81.00;;
62435;SDS011;48480;50.252;18.848;2024-01-11T01:26:49;203.20;;;79.80;;
62435;SDS011;48480;50.252;18.848;2024-01-11T01:29:34;184.70;;;73.20;;
62435;SDS011;48480;50.252;18.848;2024-01-11T01:32:18;173.90;;;72.00;;
62435;SDS011;48480;50.252;18.848;2024-01-11T01:35:02;180.00;;;75.80;;
62435;SDS011;48480;50.252;18.848;2024-01-11T01:37:47;176.80;;;70.70;;
62435;SDS011;48480;50.252;18.848;2024-01-11T01:40:31;164.80;;;67.90;;
62435;SDS011;48480;50.252;18.848;2024-01-11T01:43:18;169.70;;;67.20;;
62435;SDS011;48480;50.252;18.848;2024-01-11T01:46:02;196.40;;;76.80;;
62435;SDS011;48480;50.252;18.848;2024-01-11T01:48:48;175.60;;;67.00;;
62435;SDS011;48480;50.252;18.848;2024-01-11T01:51:33;164.60;;;64.30;;
62435;SDS011;48480;50.252;18.848;2024-01-11T01:54:17;162.20;;;60.70;;
62435;SDS011;48480;50.252;18.848;2024-01-11T01:57:03;149.90;;;59.00;;
62435;SDS011;48480;50.252;18.848;2024-01-11T01:59:49;153.50;;;58.40;;
62435;SDS011;48480;50.252;18.848;2024-01-11T02:02:39;159.90;;;59.70;;
62435;SDS011;48480;50.252;18.848;2024-01-11T02:05:26;146.80;;;58.10;;
62435;SDS011;48480;50.252;18.848;2024-01-11T02:08:12;140.90;;;55.80;;
62435;SDS011;48480;50.252;18.848;2024-01-11T02:10:59;128.80;;;54.20;;
62435;SDS011;48480;50.252;18.848;2024-01-11T02:13:44;130.50;;;51.20;;
62435;SDS011;48480;50.252;18.848;2024-01-11T02:16:29;122.80;;;50.20;;
62435;SDS011;48480;50.252;18.848;2024-01-11T02:19:13;109.70;;;48.30;;
62435;SDS011;48480;50.252;18.848;2024-01-11T02:22:00;124.50;;;54.10;;
62435;SDS011;48480;50.252;18.848;2024-01-11T02:24:50;130.80;;;54.50;;
62435;SDS011;48480;50.252;18.848;2024-01-11T02:27:48;114.80;;;49.40;;
62435;SDS011;48480;50.252;18.848;2024-01-11T02:30:34;114.40;;;46.80;;
62435;SDS011;48480;50.252;18.848;2024-01-11T02:33:18;126.20;;;51.00;;
62435;SDS011;48480;50.252;18.848;2024-01-11T02:36:03;129.40;;;51.20;;
62435;SDS011;48480;50.252;18.848;2024-01-11T02:38:48;107.30;;;44.30;;
62435;SDS011;48480;50.252;18.848;2024-01-11T02:41:32;107.40;;;46.70;;
62435;SDS011;48480;50.252;18.848;2024-01-11T02:44:17;99.10;;;46.70;;
62435;SDS011;48480;50.252;18.848;2024-01-11T02:47:02;113.50;;;47.10;;
62435;SDS011;48480;50.252;18.848;2024-01-11T02:49:46;111.10;;;44.90;;
62435;SDS011;48480;50.252;18.848;2024-01-11T02:52:30;95.10;;;38.90;;
62435;SDS011;48480;50.252;18.848;2024-01-11T02:55:14;95.20;;;42.00;;
62435;SDS011;48480;50.252;18.848;2024-01-11T02:57:58;101.10;;;40.90;;
62435;SDS011;48480;50.252;18.848;2024-01-11T03:00:42;103.40;;;41.70;;
62435;SDS011;48480;50.252;18.848;2024-01-11T03:03:28;93.60;;;40.00;;
62435;SDS011;48480;50.252;18.848;2024-01-11T03:06:12;107.60;;;42.80;;
62435;SDS011;48480;50.252;18.848;2024-01-11T03:08:57;106.00;;;42.10;;
62435;SDS011;48480;50.252;18.848;2024-01-11T03:11:41;88.50;;;41.90;;
62435;SDS011;48480;50.252;18.848;2024-01-11T03:14:26;104.70;;;42.90;;
62435;SDS011;48480;50.252;18.848;2024-01-11T03:17:10;96.20;;;43.00;;
62435;SDS011;48480;50.252;18.848;2024-01-11T03:19:54;119.70;;;48.90;;
62435;SDS011;48480;50.252;18.848;2024-01-11T03:22:44;110.80;;;47.20;;
62435;SDS011;48480;50.252;18.848;2024-01-11T03:25:32;109.70;;;43.00;;
62435;SDS011;48480;50.252;18.848;2024-01-11T03:28:17;106.60;;;45.20;;
62435;SDS011;48480;50.252;18.848;2024-01-11T03:31:04;107.10;;;47.90;;
62435;SDS011;48480;50.252;18.848;2024-01-11T03:33:48;115.20;;;47.40;;
62435;SDS011;48480;50.252;18.848;2024-01-11T03:36:33;86.30;;;37.50;;
62435;SDS011;48480;50.252;18.848;2024-01-11T03:39:17;106.80;;;46.10;;
62435;SDS011;48480;50.252;18.848;2024-01-11T03:42:02;124.50;;;49.40;;
62435;SDS011;48480;50.252;18.848;2024-01-11T03:44:47;115.60;;;47.90;;
62435;SDS011;48480;50.252;18.848;2024-01-11T03:47:32;112.60;;;45.20;;
62435;SDS011;48480;50.252;18.848;2024-01-11T03:50:16;119.20;;;48.80;;
62435;SDS011;48480;50.252;18.848;2024-01-11T03:53:00;111.60;;;45.60;;
62435;SDS011;48480;50.252;18.848;2024-01-11T03:55:44;110.60;;;46.20;;
62435;SDS011;48480;50.252;18.848;2024-01-11T03:58:28;102.90;;;45.20;;
62435;SDS011;48480;50.252;18.848;2024-01-11T04:01:13;109.10;;;45.60;;
62435;SDS011;48480;50.252;18.848;2024-01-11T04:03:57;108.80;;;47.60;;
62435;SDS011;48480;50.252;18.848;2024-01-11T04:06:41;110.90;;;47.00;;
62435;SDS011;48480;50.252;18.848;2024-01-11T04:09:25;107.90;;;47.10;;
62435;SDS011;48480;50.252;18.848;2024-01-11T04:12:09;118.00;;;48.60;;
62435;SDS011;48480;50.252;18.848;2024-01-11T04:14:54;135.10;;;54.80;;
62435;SDS011;48480;50.252;18.848;2024-01-11T04:17:38;120.90;;;51.90;;
62435;SDS011;48480;50.252;18.848;2024-01-11T04:20:23;126.60;;;57.40;;
62435;SDS011;48480;50.252;18.848;2024-01-11T04:23:07;125.80;;;55.60;;
62435;SDS011;48480;50.252;18.848;2024-01-11T04:25:52;109.30;;;47.70;;
62435;SDS011;48480;50.252;18.848;2024-01-11T04:28:36;90.70;;;41.10;;
62435;SDS011;48480;50.252;18.848;2024-01-11T04:31:21;106.30;;;45.00;;
62435;SDS011;48480;50.252;18.848;2024-01-11T04:34:05;83.50;;;37.70;;
62435;SDS011;48480;50.252;18.848;2024-01-11T04:36:50;108.20;;;46.80;;
62435;SDS011;48480;50.252;18.848;2024-01-11T04:39:35;78.40;;;36.10;;
62435;SDS011;48480;50.252;18.848;2024-01-11T04:42:19;127.30;;;50.10;;
62435;SDS011;48480;50.252;18.848;2024-01-11T04:45:03;135.30;;;52.20;;
62435;SDS011;48480;50.252;18.848;2024-01-11T04:47:50;141.10;;;55.90;;
62435;SDS011;48480;50.252;18.848;2024-01-11T04:50:34;138.00;;;56.30;;
62435;SDS011;48480;50.252;18.848;2024-01-11T04:53:21;144.30;;;58.70;;
62435;SDS011;48480;50.252;18.848;2024-01-11T04:56:09;130.00;;;55.70;;
62435;SDS011;48480;50.252;18.848;2024-01-11T04:58:54;148.80;;;54.00;;
62435;SDS011;48480;50.252;18.848;2024-01-11T05:01:39;128.30;;;54.30;;
62435;SDS011;48480;50.252;18.848;2024-01-11T05:04:23;135.70;;;54.60;;
62435;SDS011;48480;50.252;18.848;2024-01-11T05:07:07;131.00;;;58.00;;
62435;SDS011;48480;50.252;18.848;2024-01-11T05:09:51;135.30;;;59.40;;
62435;SDS011;48480;50.252;18.848;2024-01-11T05:12:36;138.10;;;61.90;;
62435;SDS011;48480;50.252;18.848;2024-01-11T05:15:21;130.60;;;57.10;;
62435;SDS011;48480;50.252;18.848;2024-01-11T05:18:05;150.40;;;63.60;;
62435;SDS011;48480;50.252;18.848;2024-01-11T05:20:49;158.30;;;69.90;;
62435;SDS011;48480;50.252;18.848;2024-01-11T05:23:33;162.80;;;69.80;;
62435;SDS011;48480;50.252;18.848;2024-01-11T05:26:17;146.40;;;65.10;;
62435;SDS011;48480;50.252;18.848;2024-01-11T05:29:02;157.80;;;69.30;;
62435;SDS011;48480;50.252;18.848;2024-01-11T05:31:48;126.00;;;51.80;;
62435;SDS011;48480;50.252;18.848;2024-01-11T05:34:32;126.80;;;50.80;;
62435;SDS011;48480;50.252;18.848;2024-01-11T05:37:16;114.10;;;46.30;;
62435;SDS011;48480;50.252;18.848;2024-01-11T05:40:01;134.80;;;55.30;;
62435;SDS011;48480;50.252;18.848;2024-01-11T05:42:45;152.00;;;60.40;;
62435;SDS011;48480;50.252;18.848;2024-01-11T05:45:29;140.90;;;57.00;;
62435;SDS011;48480;50.252;18.848;2024-01-11T05:48:14;169.50;;;65.20;;
62435;SDS011;48480;50.252;18.848;2024-01-11T05:50:59;160.00;;;61.60;;
62435;SDS011;48480;50.252;18.848;2024-01-11T05:53:43;153.70;;;65.10;;
62435;SDS011;48480;50.252;18.848;2024-01-11T05:56:27;191.80;;;76.50;;
62435;SDS011;48480;50.252;18.848;2024-01-11T05:59:12;131.90;;;56.10;;
62435;SDS011;48480;50.252;18.848;2024-01-11T06:01:56;134.00;;;56.20;;
62435;SDS011;48480;50.252;18.848;2024-01-11T06:04:43;124.80;;;51.70;;
62435;SDS011;48480;50.252;18.848;2024-01-11T06:07:28;127.50;;;53.60;;
62435;SDS011;48480;50.252;18.848;2024-01-11T06:10:13;132.40;;;52.40;;
62435;SDS011;48480;50.252;18.848;2024-01-11T06:12:58;125.00;;;54.00;;
62435;SDS011;48480;50.252;18.848;2024-01-11T06:15:42;121.30;;;53.40;;
62435;SDS011;48480;50.252;18.848;2024-01-11T06:18:26;144.60;;;56.40;;
62435;SDS011;48480;50.252;18.848;2024-01-11T06:21:10;133.10;;;55.80;;
62435;SDS011;48480;50.252;18.848;2024-01-11T06:23:55;137.60;;;56.80;;
62435;SDS011;48480;50.252;18.848;2024-01-11T06:26:38;137.90;;;58.70;;
62435;SDS011;48480;50.252;18.848;2024-01-11T06:29:23;144.20;;;61.50;;
62435;SDS011;48480;50.252;18.848;2024-01-11T06:32:07;119.60;;;54.90;;
62435;SDS011;48480;50.252;18.848;2024-01-11T06:34:51;109.10;;;48.40;;
62435;SDS011;48480;50.252;18.848;2024-01-11T06:37:35;124.50;;;52.80;;
62435;SDS011;48480;50.252;18.848;2024-01-11T06:40:19;118.00;;;53.30;;
62435;SDS011;48480;50.252;18.848;2024-01-11T06:43:04;120.00;;;51.70;;
62435;SDS011;48480;50.252;18.848;2024-01-11T06:45:48;102.40;;;44.70;;
62435;SDS011;48480;50.252;18.848;2024-01-11T06:48:32;104.40;;;42.00;;
62435;SDS011;48480;50.252;18.848;2024-01-11T06:51:20;110.50;;;44.60;;
62435;SDS011;48480;50.252;18.848;2024-01-11T06:54:06;113.20;;;45.20;;
62435;SDS011;48480;50.252;18.848;2024-01-11T06:56:51;121.90;;;47.90;;
62435;SDS011;48480;50.252;18.848;2024-01-11T06:59:35;111.90;;;46.80;;
62435;SDS011;48480;50.252;18.848;2024-01-11T07:02:19;116.60;;;49.60;;
62435;SDS011;48480;50.252;18.848;2024-01-11T07:05:03;135.50;;;52.80;;
62435;SDS011;48480;50.252;18.848;2024-01-11T07:07:47;143.20;;;59.10;;
62435;SDS011;48480;50.252;18.848;2024-01-11T07:10:31;137.30;;;55.90;;
62435;SDS011;48480;50.252;18.848;2024-01-11T07:13:15;168.60;;;65.00;;
62435;SDS011;48480;50.252;18.848;2024-01-11T07:16:00;215.60;;;85.70;;
62435;SDS011;48480;50.252;18.848;2024-01-11T07:18:46;189.10;;;80.50;;
62435;SDS011;48480;50.252;18.848;2024-01-11T07:21:31;154.30;;;77.10;;
62435;SDS011;48480;50.252;18.848;2024-01-11T07:24:15;149.40;;;70.70;;
62435;SDS011;48480;50.252;18.848;2024-01-11T07:26:59;125.40;;;57.20;;
62435;SDS011;48480;50.252;18.848;2024-01-11T07:29:43;118.90;;;51.80;;
62435;SDS011;48480;50.252;18.848;2024-01-11T07:32:28;103.30;;;45.90;;
62435;SDS011;48480;50.252;18.848;2024-01-11T07:35:13;94.60;;;43.20;;
62435;SDS011;48480;50.252;18.848;2024-01-11T07:37:58;79.90;;;39.60;;
62435;SDS011;48480;50.252;18.848;2024-01-11T07:40:41;85.20;;;41.70;;
62435;SDS011;48480;50.252;18.848;2024-01-11T07:43:26;93.90;;;46.10;;
62435;SDS011;48480;50.252;18.848;2024-01-11T07:46:12;177.50;;;72.50;;
62435;SDS011;48480;50.252;18.848;2024-01-11T07:48:56;203.90;;;76.90;;
62435;SDS011;48480;50.252;18.848;2024-01-11T07:51:40;198.20;;;83.00;;
62435;SDS011;48480;50.252;18.848;2024-01-11T07:54:25;206.90;;;77.10;;
62435;SDS011;48480;50.252;18.848;2024-01-11T07:57:09;177.70;;;67.20;;
62435;SDS011;48480;50.252;18.848;2024-01-11T07:59:53;135.50;;;53.70;;
62435;SDS011;48480;50.252;18.848;2024-01-11T08:02:37;121.70;;;50.20;;
62435;SDS011;48480;50.252;18.848;2024-01-11T08:11:21;103.20;;;46.20;;
62435;SDS011;48480;50.252;18.848;2024-01-11T08:14:05;114.10;;;49.20;;
62435;SDS011;48480;50.252;18.848;2024-01-11T08:16:49;110.50;;;46.50;;
62435;SDS011;48480;50.252;18.848;2024-01-11T08:19:34;91.80;;;42.60;;
62435;SDS011;48480;50.252;18.848;2024-01-11T08:22:19;93.70;;;40.90;;
62435;SDS011;48480;50.252;18.848;2024-01-11T08:25:05;84.50;;;41.00;;
62435;SDS011;48480;50.252;18.848;2024-01-11T08:27:49;102.20;;;45.50;;
62435;SDS011;48480;50.252;18.848;2024-01-11T08:30:33;103.10;;;45.30;;
62435;SDS011;48480;50.252;18.848;2024-01-11T08:33:18;89.40;;;42.80;;
62435;SDS011;48480;50.252;18.848;2024-01-11T08:36:02;74.60;;;36.60;;
62435;SDS011;48480;50.252;18.848;2024-01-11T08:38:48;77.40;;;38.40;;
62435;SDS011;48480;50.252;18.848;2024-01-11T08:41:36;102.10;;;43.50;;
62435;SDS011;48480;50.252;18.848;2024-01-11T08:44:23;151.10;;;56.10;;
62435;SDS011;48480;50.252;18.848;2024-01-11T08:47:08;118.90;;;48.30;;
62435;SDS011;48480;50.252;18.848;2024-01-11T08:49:53;121.40;;;45.70;;
62435;SDS011;48480;50.252;18.848;2024-01-11T08:52:37;99.30;;;40.60;;
62435;SDS011;48480;50.252;18.848;2024-01-11T08:55:23;78.30;;;36.30;;
62435;SDS011;48480;50.252;18.848;2024-01-11T08:58:08;80.90;;;35.90;;
62435;SDS011;48480;50.252;18.848;2024-01-11T09:00:52;75.40;;;34.70;;
62435;SDS011;48480;50.252;18.848;2024-01-11T09:03:36;72.70;;;33.90;;
62435;SDS011;48480;50.252;18.848;2024-01-11T09:06:20;62.00;;;30.70;;
62435;SDS011;48480;50.252;18.848;2024-01-11T09:09:05;50.10;;;26.70;;
62435;SDS011;48480;50.252;18.848;2024-01-11T09:11:53;55.10;;;27.10;;
62435;SDS011;48480;50.252;18.848;2024-01-11T09:14:37;56.30;;;26.00;;
62435;SDS011;48480;50.252;18.848;2024-01-11T09:17:23;63.90;;;29.40;;
62435;SDS011;48480;50.252;18.848;2024-01-11T09:20:08;65.10;;;30.60;;
62435;SDS011;48480;50.252;18.848;2024-01-11T09:22:53;50.70;;;26.30;;
62435;SDS011;48480;50.252;18.848;2024-01-11T09:25:37;56.50;;;28.90;;
62435;SDS011;48480;50.252;18.848;2024-01-11T09:28:21;56.00;;;25.50;;
62435;SDS011;48480;50.252;18.848;2024-01-11T09:31:05;55.00;;;28.40;;
62435;SDS011;48480;50.252;18.848;2024-01-11T09:33:49;59.40;;;27.10;;
62435;SDS011;48480;50.252;18.848;2024-01-11T09:36:34;64.40;;;29.80;;
62435;SDS011;48480;50.252;18.848;2024-01-11T09:39:18;63.20;;;30.20;;
62435;SDS011;48480;50.252;18.848;2024-01-11T09:42:06;73.10;;;32.40;;
62435;SDS011;48480;50.252;18.848;2024-01-11T09:44:54;58.40;;;29.30;;
62435;SDS011;48480;50.252;18.848;2024-01-11T09:47:40;62.70;;;28.40;;
62435;SDS011;48480;50.252;18.848;2024-01-11T09:50:24;52.30;;;27.10;;
62435;SDS011;48480;50.252;18.848;2024-01-11T09:53:09;54.90;;;26.80;;
62435;SDS011;48480;50.252;18.848;2024-01-11T09:55:53;51.20;;;25.70;;
62435;SDS011;48480;50.252;18.848;2024-01-11T09:58:40;46.20;;;22.70;;
62435;SDS011;48480;50.252;18.848;2024-01-11T10:01:32;50.10;;;24.00;;
62435;SDS011;48480;50.252;18.848;2024-01-11T10:04:16;50.90;;;22.80;;
62435;SDS011;48480;50.252;18.848;2024-01-11T10:07:00;47.90;;;23.10;;
62435;SDS011;48480;50.252;18.848;2024-01-11T10:09:48;45.70;;;22.00;;
62435;SDS011;48480;50.252;18.848;2024-01-11T10:12:36;52.20;;;25.40;;
62435;SDS011;48480;50.252;18.848;2024-01-11T10:15:21;59.40;;;25.80;;
62435;SDS011;48480;50.252;18.848;2024-01-11T10:18:08;54.20;;;27.60;;
62435;SDS011;48480;50.252;18.848;2024-01-11T10:20:52;57.90;;;25.60;;
62435;SDS011;48480;50.252;18.848;2024-01-11T10:23:37;58.00;;;28.00;;
62435;SDS011;48480;50.252;18.848;2024-01-11T10:26:22;53.70;;;25.30;;
62435;SDS011;48480;50.252;18.848;2024-01-11T10:29:06;55.60;;;25.20;;
62435;SDS011;48480;50.252;18.848;2024-01-11T10:31:54;52.60;;;25.60;;
62435;SDS011;48480;50.252;18.848;2024-01-11T10:34:38;47.70;;;23.40;;
62435;SDS011;48480;50.252;18.848;2024-01-11T10:37:25;38.70;;;18.10;;
62435;SDS011;48480;50.252;18.848;2024-01-11T10:40:10;57.30;;;26.60;;
62435;SDS011;48480;50.252;18.848;2024-01-11T10:42:56;50.70;;;25.50;;
62435;SDS011;48480;50.252;18.848;2024-01-11T10:45:44;37.50;;;19.20;;
62435;SDS011;48480;50.252;18.848;2024-01-11T10:48:31;45.80;;;22.30;;
62435;SDS011;48480;50.252;18.848;2024-01-11T10:51:21;50.70;;;24.20;;
62435;SDS011;48480;50.252;18.848;2024-01-11T10:54:08;55.90;;;24.70;;
62435;SDS011;48480;50.252;18.848;2024-01-11T10:56:52;51.60;;;24.70;;
62435;SDS011;48480;50.252;18.848;2024-01-11T10:59:38;37.20;;;16.70;;
62435;SDS011;48480;50.252;18.848;2024-01-11T11:02:24;53.40;;;24.00;;
62435;SDS011;48480;50.252;18.848;2024-01-11T11:05:09;58.90;;;25.80;;
62435;SDS011;48480;50.252;18.848;2024-01-11T11:07:57;47.60;;;23.30;;
62435;SDS011;48480;50.252;18.848;2024-01-11T11:10:44;47.20;;;22.50;;
62435;SDS011;48480;50.252;18.848;2024-01-11T11:13:31;55.40;;;26.50;;
62435;SDS011;48480;50.252;18.848;2024-01-11T11:16:18;54.50;;;26.40;;
62435;SDS011;48480;50.252;18.848;2024-01-11T11:19:03;57.20;;;25.50;;
62435;SDS011;48480;50.252;18.848;2024-01-11T11:21:48;56.10;;;26.10;;
62435;SDS011;48480;50.252;18.848;2024-01-11T11:24:35;49.10;;;24.10;;
62435;SDS011;48480;50.252;18.848;2024-01-11T11:27:20;44.70;;;21.80;;
62435;SDS011;48480;50.252;18.848;2024-01-11T11:30:05;48.40;;;24.20;;
62435;SDS011;48480;50.252;18.848;2024-01-11T11:32:50;52.60;;;25.40;;
62435;SDS011;48480;50.252;18.848;2024-01-11T11:35:34;43.50;;;21.50;;
62435;SDS011;48480;50.252;18.848;2024-01-11T11:38:19;52.10;;;23.80;;
62435;SDS011;48480;50.252;18.848;2024-01-11T11:41:05;33.60;;;17.10;;
62435;SDS011;48480;50.252;18.848;2024-01-11T11:43:51;45.10;;;22.90;;
62435;SDS011;48480;50.252;18.848;2024-01-11T11:46:35;53.20;;;25.00;;
62435;SDS011;48480;50.252;18.848;2024-01-11T11:49:20;44.80;;;21.00;;
62435;SDS011;48480;50.252;18.848;2024-01-11T11:52:04;49.70;;;22.90;;
62435;SDS011;48480;50.252;18.848;2024-01-11T11:54:49;42.20;;;20.30;;
62435;SDS011;48480;50.252;18.848;2024-01-11T11:57:37;40.30;;;19.60;;
62435;SDS011;48480;50.252;18.848;2024-01-11T12:00:21;34.20;;;14.90;;
62435;SDS011;48480;50.252;18.848;2024-01-11T12:03:07;38.00;;;18.70;;
62435;SDS011;48480;50.252;18.848;2024-01-11T12:05:53;32.00;;;16.40;;
62435;SDS011;48480;50.252;18.848;2024-01-11T12:08:37;40.40;;;19.10;;
62435;SDS011;48480;50.252;18.848;2024-01-11T12:11:25;39.50;;;18.30;;
62435;SDS011;48480;50.252;18.848;2024-01-11T12:14:09;39.00;;;17.60;;
62435;SDS011;48480;50.252;18.848;2024-01-11T12:16:57;39.00;;;17.90;;
62435;SDS011;48480;50.252;18.848;2024-01-11T12:19:42;33.50;;;18.10;;
62435;SDS011;48480;50.252;18.848;2024-01-11T12:22:26;38.40;;;17.10;;
62435;SDS011;48480;50.252;18.848;2024-01-11T12:25:11;33.70;;;16.30;;
62435;SDS011;48480;50.252;18.848;2024-01-11T12:27:55;31.30;;;13.60;;
62435;SDS011;48480;50.252;18.848;2024-01-11T12:30:39;32.80;;;15.20;;
62435;SDS011;48480;50.252;18.848;2024-01-11T12:33:24;35.60;;;17.90;;
62435;SDS011;48480;50.252;18.848;2024-01-11T12:36:10;33.60;;;17.10;;
62435;SDS011;48480;50.252;18.848;2024-01-11T12:38:54;38.80;;;17.20;;
62435;SDS011;48480;50.252;18.848;2024-01-11T12:41:39;33.40;;;16.60;;
62435;SDS011;48480;50.252;18.848;2024-01-11T12:44:23;33.60;;;14.90;;
62435;SDS011;48480;50.252;18.848;2024-01-11T12:47:08;34.50;;;17.50;;
62435;SDS011;48480;50.252;18.848;2024-01-11T12:49:53;32.20;;;15.60;;
62435;SDS011;48480;50.252;18.848;2024-01-11T12:52:37;39.30;;;18.40;;
62435;SDS011;48480;50.252;18.848;2024-01-11T12:55:20;33.20;;;15.40;;
62435;SDS011;48480;50.252;18.848;2024-01-11T12:58:08;37.00;;;18.90;;
62435;SDS011;48480;50.252;18.848;2024-01-11T13:00:53;43.50;;;20.10;;
62435;SDS011;48480;50.252;18.848;2024-01-11T13:03:38;41.90;;;19.30;;
62435;SDS011;48480;50.252;18.848;2024-01-11T13:06:23;39.80;;;18.60;;
62435;SDS011;48480;50.252;18.848;2024-01-11T13:09:09;47.10;;;20.90;;
62435;SDS011;48480;50.252;18.848;2024-01-11T13:11:53;48.40;;;19.80;;
62435;SDS011;48480;50.252;18.848;2024-01-11T13:14:38;28.80;;;14.40;;
62435;SDS011;48480;50.252;18.848;2024-01-11T13:17:24;41.30;;;20.30;;
62435;SDS011;48480;50.252;18.848;2024-01-11T13:20:09;48.20;;;20.90;;
62435;SDS011;48480;50.252;18.848;2024-01-11T13:23:10;45.00;;;22.10;;
62435;SDS011;48480;50.252;18.848;2024-01-11T13:25:59;41.90;;;19.80;;
62435;SDS011;48480;50.252;18.848;2024-01-11T13:28:44;40.50;;;19.00;;
62435;SDS011;48480;50.252;18.848;2024-01-11T13:31:28;40.40;;;20.30;;
62435;SDS011;48480;50.252;18.848;2024-01-11T13:34:12;44.10;;;20.70;;
62435;SDS011;48480;50.252;18.848;2024-01-11T13:36:56;53.70;;;23.30;;
62435;SDS011;48480;50.252;18.848;2024-01-11T13:39:43;40.50;;;18.50;;
62435;SDS011;48480;50.252;18.848;2024-01-11T13:42:27;45.90;;;20.80;;
62435;SDS011;48480;50.252;18.848;2024-01-11T13:45:12;50.90;;;22.00;;
62435;SDS011;48480;50.252;18.848;2024-01-11T13:47:56;43.10;;;19.60;;
62435;SDS011;48480;50.252;18.848;2024-01-11T13:50:41;44.70;;;20.60;;
62435;SDS011;48480;50.252;18.848;2024-01-11T13:53:25;49.70;;;21.50;;
62435;SDS011;48480;50.252;18.848;2024-01-11T13:56:10;42.70;;;20.50;;
62435;SDS011;48480;50.252;18.848;2024-01-11T13:58:54;47.70;;;22.40;;
62435;SDS011;48480;50.252;18.848;2024-01-11T14:01:39;44.30;;;20.50;;
62435;SDS011;48480;50.252;18.848;2024-01-11T14:04:23;39.80;;;20.30;;
62435;SDS011;48480;50.252;18.848;2024-01-11T14:07:07;39.60;;;19.90;;
62435;SDS011;48480;50.252;18.848;2024-01-11T14:09:51;37.10;;;18.90;;
62435;SDS011;48480;50.252;18.848;2024-01-11T14:12:35;41.10;;;18.90;;
62435;SDS011;48480;50.252;18.848;2024-01-11T14:15:20;46.10;;;20.20;;
62435;SDS011;48480;50.252;18.848;2024-01-11T14:18:05;44.00;;;20.80;;
62435;SDS011;48480;50.252;18.848;2024-01-11T14:20:51;48.50;;;20.20;;
62435;SDS011;48480;50.252;18.848;2024-01-11T14:23:35;40.10;;;20.30;;
62435;SDS011;48480;50.252;18.848;2024-01-11T14:26:19;46.80;;;20.30;;
62435;SDS011;48480;50.252;18.848;2024-01-11T14:29:03;42.90;;;20.80;;
62435;SDS011;48480;50.252;18.848;2024-01-11T14:31:47;41.20;;;20.30;;
62435;SDS011;48480;50.252;18.848;2024-01-11T14:34:31;39.40;;;18.80;;
62435;SDS011;48480;50.252;18.848;2024-01-11T14:37:16;51.40;;;21.70;;
62435;SDS011;48480;50.252;18.848;2024-01-11T14:40:00;46.90;;;20.10;;
62435;SDS011;48480;50.252;18.848;2024-01-11T14:42:45;42.20;;;21.30;;
62435;SDS011;48480;50.252;18.848;2024-01-11T14:45:29;47.50;;;21.10;;
62435;SDS011;48480;50.252;18.848;2024-01-11T14:48:14;40.00;;;19.20;;
62435;SDS011;48480;50.252;18.848;2024-01-11T14:50:57;47.90;;;21.70;;
62435;SDS011;48480;50.252;18.848;2024-01-11T14:53:41;49.80;;;23.30;;
62435;SDS011;48480;50.252;18.848;2024-01-11T14:56:26;51.50;;;24.40;;
62435;SDS011;48480;50.252;18.848;2024-01-11T14:59:10;43.60;;;20.60;;
62435;SDS011;48480;50.252;18.848;2024-01-11T15:01:54;40.60;;;20.20;;
62435;SDS011;48480;50.252;18.848;2024-01-11T15:04:38;37.40;;;19.30;;
62435;SDS011;48480;50.252;18.848;2024-01-11T15:07:22;40.40;;;19.30;;
62435;SDS011;48480;50.252;18.848;2024-01-11T15:10:08;36.50;;;18.50;;
62435;SDS011;48480;50.252;18.848;2024-01-11T15:12:52;38.70;;;19.10;;
62435;SDS011;48480;50.252;18.848;2024-01-11T15:15:37;39.60;;;20.30;;
62435;SDS011;48480;50.252;18.848;2024-01-11T15:18:21;45.40;;;22.00;;
62435;SDS011;48480;50.252;18.848;2024-01-11T15:21:05;38.50;;;17.70;;
62435;SDS011;48480;50.252;18.848;2024-01-11T15:23:50;40.90;;;20.40;;
62435;SDS011;48480;50.252;18.848;2024-01-11T15:26:34;42.30;;;20.80;;
62435;SDS011;48480;50.252;18.848;2024-01-11T15:29:18;41.00;;;19.70;;
62435;SDS011;48480;50.252;18.848;2024-01-11T15:32:02;30.20;;;16.70;;
62435;SDS011;48480;50.252;18.848;2024-01-11T15:34:46;39.80;;;19.20;;
62435;SDS011;48480;50.252;18.848;2024-01-11T15:37:31;34.70;;;17.90;;
62435;SDS011;48480;50.252;18.848;2024-01-11T15:40:16;48.10;;;23.30;;
62435;SDS011;48480;50.252;18.848;2024-01-11T15:43:02;41.40;;;20.20;;
62435;SDS011;48480;50.252;18.848;2024-01-11T15:45:50;41.40;;;21.60;;
62435;SDS011;48480;50.252;18.848;2024-01-11T15:48:34;40.30;;;21.10;;
62435;SDS011;48480;50.252;18.848;2024-01-11T15:51:18;40.70;;;20.00;;